Knox, IN

11:48 PM CDT on May 25, 2017 (GMT -0500)
Starke County

Weather History for KOXI - March, 2013

Change the Weather History Date:

Saturday, March 16, 2013

  Actual Average (KRCR) Record (KRCR)
Temperature  
Mean Temperature 34 °F -  
Max Temperature 61 °F 46 °F 71 °F (2015)
Min Temperature 29 °F 26 °F 21 °F (2017)
Degree Days  
Heating Degree Days 31    
Moisture  
Dew Point 32 °F    
Average Humidity 92    
Maximum Humidity 100    
Minimum Humidity 79    
Precipitation  
Precipitation 0.00 in - - ()
Sea Level Pressure  
Sea Level Pressure 29.86 in    
Wind  
Wind Speed 9 mph (North)    
Max Wind Speed 21 mph    
Max Gust Speed 25 mph    
Visibility 6 miles    
Events      
Averages and records for this station are not official NWS values.
T = Trace of Precipitation, MM = Missing Value Source: NWS Daily Summary

Daily Weather History Graph

Daily Weather History Graph

Search for Another Location

Airport or City:

Trip Planner

Search our weather history database for the weather conditions in past years. The results will help you decide how hot, cold, wet, or windy it might be!

Date:

Astronomy

Mar. 16, 2013 Rise Set
Actual Time 6:56 AM CDT 6:54 PM CDT
Civil Twilight 6:28 AM CDT 7:22 PM CDT
Nautical Twilight 5:56 AM CDT 7:54 PM CDT
Astronomical Twilight 5:24 AM CDT 8:27 PM CDT
Moon 9:22 AM CDT (3/16) No Moon Set
Length of Visible Light 12h 53m
Length of Day
11h 58m
Waxing Crescent, 23% of the Moon is Illuminated
Mar 16
Waxing Crescent
Mar 19
First Quarter
Mar 27
Full
Apr 2
Last Quarter
Apr 10
New

Hourly Weather History & Observations

Time (CDT) Temp. Windchill Dew Point Humidity Pressure Visibility Wind Dir Wind Speed Gust Speed Precip Events Conditions
12:35 AM 38.3 °F 31.9 °F 38.1 °F 99% 29.68 in 0.2 mi NE 9.2 mph - N/A   Overcast
1:15 AM 38.5 °F 35.0 °F 38.3 °F 99% 29.69 in 0.2 mi ENE 4.6 mph - N/A   Overcast
1:35 AM 38.7 °F 36.3 °F 38.5 °F 99% 29.69 in 0.2 mi ENE 3.5 mph - N/A   Overcast
1:55 AM 39.2 °F 35.0 °F 38.7 °F 98% 29.69 in 0.8 mi NE 5.8 mph - N/A   Overcast
2:15 AM 39.0 °F 34.0 °F 38.7 °F 99% 29.68 in 1.0 mi NE 6.9 mph - N/A   Overcast
2:35 AM 38.8 °F 34.6 °F 38.7 °F 99% 29.68 in 1.0 mi NE 5.8 mph - N/A   Overcast
2:55 AM 38.7 °F 32.4 °F 38.5 °F 99% 29.68 in 0.8 mi NNE 9.2 mph - N/A   Overcast
3:15 AM 38.5 °F 32.7 °F 38.3 °F 99% 29.67 in 1.0 mi NE 8.1 mph - N/A   Overcast
3:35 AM 38.3 °F 31.9 °F 38.3 °F 100% 29.64 in 1.0 mi East 9.2 mph - N/A   Overcast
3:55 AM 38.5 °F 31.1 °F 38.3 °F 99% 29.63 in 1.2 mi ENE 11.5 mph - N/A   Overcast
4:15 AM 38.5 °F 32.7 °F 38.3 °F 99% 29.64 in 1.5 mi ENE 8.1 mph - N/A   Overcast
4:35 AM 38.3 °F 31.9 °F 38.3 °F 100% 29.66 in 1.8 mi NNE 9.2 mph - N/A   Overcast
4:55 AM 38.3 °F 31.4 °F 38.3 °F 100% 29.66 in 1.5 mi NNE 10.4 mph - N/A   Overcast
5:15 AM 38.1 °F 32.9 °F 37.8 °F 99% 29.67 in 1.5 mi NNE 6.9 mph - N/A   Overcast
5:35 AM 37.8 °F 32.5 °F 37.6 °F 99% 29.66 in 1.2 mi NE 6.9 mph - N/A   Overcast
5:55 AM 37.8 °F 33.3 °F 37.6 °F 99% 29.67 in 1.2 mi NE 5.8 mph - N/A   Overcast
6:15 AM 37.8 °F 33.3 °F 37.6 °F 99% 29.68 in 1.5 mi NE 5.8 mph - N/A   Overcast
6:55 AM 37.6 °F 33.1 °F 37.4 °F 99% 29.70 in 1.8 mi NNE 5.8 mph - N/A   Overcast
7:15 AM 37.4 °F 30.8 °F 37.2 °F 99% 29.70 in 1.0 mi NNE 9.2 mph - N/A   Overcast
7:35 AM 37.4 °F 31.4 °F 37.0 °F 99% 29.71 in 1.0 mi NNE 8.1 mph - N/A   Overcast
7:55 AM 37.0 °F 31.0 °F 36.9 °F 99% 29.72 in 1.0 mi North 8.1 mph - N/A   Overcast
8:15 AM 36.7 °F 29.4 °F 36.5 °F 99% 29.73 in 1.0 mi North 10.4 mph - N/A   Overcast
8:35 AM 36.5 °F 29.7 °F 36.5 °F 100% 29.74 in 1.2 mi North 9.2 mph - N/A   Overcast
8:55 AM 36.7 °F 32.0 °F 36.5 °F 99% 29.75 in 1.5 mi North 5.8 mph - N/A   Overcast
9:15 AM 36.9 °F 28.2 °F 36.7 °F 99% 29.75 in 1.8 mi NNW 13.8 mph 17.3 mph N/A   Overcast
9:35 AM 36.7 °F 28.9 °F 36.5 °F 99% 29.77 in 2.0 mi NNW 11.5 mph - N/A   Overcast
9:55 AM 36.9 °F 28.7 °F 36.7 °F 99% 29.78 in 2.5 mi North 12.7 mph - N/A   Overcast
10:15 AM 36.9 °F 29.1 °F 36.7 °F 99% 29.79 in 1.5 mi NW 11.5 mph - N/A   Overcast
10:35 AM 36.5 °F 27.4 °F 36.3 °F 99% 29.81 in 2.5 mi NNW 15.0 mph - N/A   Overcast
10:55 AM 35.2 °F 25.4 °F 35.1 °F 99% 29.83 in 3.0 mi North 16.1 mph - N/A   Overcast
11:15 AM 34.5 °F 25.7 °F 34.3 °F 99% 29.84 in 4.0 mi NNW 12.7 mph - N/A   Overcast
11:35 AM 34.2 °F 23.6 °F 34.0 °F 99% 29.85 in 5.0 mi NNW 17.3 mph - N/A   Overcast
11:55 AM 34.5 °F 23.4 °F 34.0 °F 98% 29.87 in 7.0 mi NNW 19.6 mph 25.3 mph N/A   Overcast
12:15 PM 34.7 °F 23.7 °F 33.8 °F 97% 29.87 in 10.0 mi NNW 19.6 mph 25.3 mph N/A   Overcast
12:35 PM 34.2 °F 22.6 °F 33.1 °F 96% 29.88 in 10.0 mi North 20.7 mph 24.2 mph N/A   Overcast
12:55 PM 34.7 °F 23.4 °F 33.1 °F 94% 29.89 in 10.0 mi North 20.7 mph 24.2 mph N/A   Overcast
1:15 PM 34.7 °F 24.0 °F 32.7 °F 92% 29.90 in 10.0 mi North 18.4 mph 24.2 mph N/A   Overcast
2:15 PM 33.8 °F 22.2 °F 31.3 °F 90% 29.93 in 10.0 mi NNW 20.7 mph - N/A   Overcast
2:35 PM 33.6 °F 23.3 °F 30.9 °F 90% 29.93 in 10.0 mi North 16.1 mph - N/A   Overcast
2:55 PM 34.2 °F 23.6 °F 30.9 °F 88% 29.93 in 10.0 mi North 17.3 mph - N/A   Overcast
3:15 PM 33.8 °F 22.8 °F 30.4 °F 87% 29.94 in 10.0 mi North 18.4 mph - N/A   Overcast
3:35 PM 32.9 °F 21.3 °F 29.7 °F 88% 29.94 in 10.0 mi North 19.6 mph - N/A   Overcast
3:55 PM 32.2 °F 21.1 °F 29.1 °F 88% 29.96 in 10.0 mi North 17.3 mph - N/A   Overcast
4:15 PM 32.0 °F 21.2 °F 28.9 °F 88% 29.97 in 10.0 mi North 16.1 mph - N/A   Overcast
4:35 PM 32.0 °F 22.1 °F 28.8 °F 88% 29.98 in 10.0 mi North 13.8 mph - N/A   Overcast
4:55 PM 32.0 °F 22.5 °F 28.4 °F 87% 29.99 in 10.0 mi North 12.7 mph - N/A   Overcast
5:15 PM 32.0 °F 22.1 °F 28.0 °F 85% 29.99 in 10.0 mi North 13.8 mph - N/A   Overcast
5:35 PM 32.0 °F 23.6 °F 27.7 °F 84% 29.99 in 10.0 mi North 10.4 mph - N/A   Overcast
5:55 PM 32.0 °F 23.0 °F 27.7 °F 84% 30.00 in 10.0 mi North 11.5 mph - N/A   Overcast
6:15 PM 31.6 °F 22.6 °F 27.5 °F 85% 30.01 in 10.0 mi North 11.5 mph - N/A   Overcast
6:35 PM 31.3 °F 24.7 °F 26.8 °F 83% 30.02 in 10.0 mi NNE 6.9 mph - N/A   Overcast
6:55 PM 30.9 °F 25.2 °F 26.4 °F 83% 30.02 in 10.0 mi North 5.8 mph - N/A   Overcast
7:15 PM 30.9 °F 22.8 °F 26.1 °F 82% 30.02 in 10.0 mi NNW 9.2 mph - N/A   Overcast
7:35 PM 30.7 °F 22.6 °F 25.7 °F 82% 30.02 in 10.0 mi NNW 9.2 mph - N/A   Overcast
8:15 PM 30.2 °F 21.9 °F 24.6 °F 80% 30.03 in 10.0 mi North 9.2 mph - N/A   Overcast
8:35 PM 30.2 °F 21.9 °F 24.8 °F 80% 30.04 in 10.0 mi NNE 9.2 mph - N/A   Overcast
8:55 PM 30.0 °F 21.7 °F 24.4 °F 80% 30.05 in 10.0 mi North 9.2 mph - N/A   Overcast
9:15 PM 29.8 °F 23.9 °F 24.1 °F 79% 30.07 in 10.0 mi North 5.8 mph - N/A   Overcast
9:35 PM 29.7 °F 26.1 °F 24.3 °F 80% 30.08 in 10.0 mi North 3.5 mph - N/A   Overcast
9:55 PM 29.8 °F - 24.6 °F 81% 30.08 in 10.0 mi Calm Calm - N/A   Overcast
10:15 PM 30.2 °F - 24.6 °F 80% 30.09 in 10.0 mi Calm Calm - N/A   Overcast
10:35 PM 30.2 °F - 24.3 °F 79% 30.09 in 10.0 mi Calm Calm - N/A   Overcast
10:55 PM 30.2 °F - 24.6 °F 80% 30.10 in 10.0 mi Calm Calm - N/A   Overcast
11:15 PM 30.2 °F - 25.2 °F 82% 30.09 in 10.0 mi Calm Calm - N/A   Overcast
11:35 PM 30.2 °F 25.4 °F 25.3 °F 82% 30.09 in 10.0 mi North 4.6 mph - N/A   Overcast
11:55 PM 30.2 °F 24.3 °F 25.0 °F 81% 30.09 in 10.0 mi North 5.8 mph - N/A   Overcast